Time;durP1;ratioP1;P1;durP2;ratioP2;P2;SDS_P1;SDS_P2;PMS_P1;PMS_P2;Temp;Humidity;BMP_temperature;BMP_pressure;BME280_temperature;BME280_humidity;BME280_pressure;Samples;Min_cycle;Max_cycle;Signal;HPM_P1;HPM_P2
2024/03/16 00:00:51;;;;;;;14.40;9.37;;;;;;;10.07;100.00;101876.34;2087734;28;20180;-65
2024/03/16 00:01:52;;;;;;;15.13;8.83;;;;;;;10.03;100.00;101883.81;2096364;28;20198;-64
2024/03/16 00:02:53;;;;;;;15.93;9.57;;;;;;;10.09;100.00;101879.47;2088634;28;20207;-64
2024/03/16 00:03:53;;;;;;;13.50;9.00;;;;;;;10.20;100.00;101874.69;2088458;28;20196;-64
2024/03/16 00:04:54;;;;;;;16.13;8.60;;;;;;;10.22;100.00;101875.13;2089690;28;20717;-64
2024/03/16 00:05:56;;;;;;;17.33;9.33;;;;;;;10.09;100.00;101871.16;2087804;28;20731;-64
2024/03/16 00:06:57;;;;;;;14.07;8.87;;;;;;;10.11;100.00;101877.13;2090363;28;20203;-64
2024/03/16 00:07:58;;;;;;;13.97;9.20;;;;;;;10.12;100.00;101877.91;2092310;28;20454;-64
2024/03/16 00:08:59;;;;;;;15.10;9.10;;;;;;;9.50;100.00;101779.88;2088428;28;20950;-64
2024/03/16 00:09:59;;;;;;;14.83;9.13;;;;;;;10.16;100.00;101876.72;2090234;28;20212;-64
2024/03/16 00:11:00;;;;;;;16.43;9.17;;;;;;;10.24;100.00;101875.50;2092880;28;20547;-65
2024/03/16 00:12:00;;;;;;;16.07;8.93;;;;;;;10.27;100.00;101876.69;2090967;28;20635;-64
2024/03/16 00:13:01;;;;;;;14.27;8.80;;;;;;;10.21;100.00;101862.47;2088872;28;20195;-64
2024/03/16 00:14:01;;;;;;;13.00;8.17;;;;;;;10.30;100.00;101870.34;2092179;28;20199;-64
2024/03/16 00:15:02;;;;;;;14.00;8.57;;;;;;;10.38;100.00;101869.13;2091805;28;20191;-64
2024/03/16 00:16:03;;;;;;;14.63;8.23;;;;;;;10.34;100.00;101857.25;2092151;28;20195;-65
2024/03/16 00:17:04;;;;;;;15.90;9.37;;;;;;;10.46;100.00;101873.44;2092684;28;20210;-65
2024/03/16 00:18:05;;;;;;;12.47;7.43;;;;;;;10.53;100.00;101871.44;2090161;28;20474;-65
2024/03/16 00:19:06;;;;;;;14.33;8.63;;;;;;;10.54;100.00;101858.34;2090300;28;20480;-64
2024/03/16 00:20:10;;;;;;;13.47;8.50;;;;;;;10.60;100.00;101865.88;2088539;28;20191;-64
2024/03/16 00:21:10;;;;;;;13.47;8.87;;;;;;;10.65;100.00;101864.66;2093407;28;20195;-64
2024/03/16 00:22:11;;;;;;;15.10;9.03;;;;;;;10.65;100.00;101857.13;2089417;28;20450;-64
2024/03/16 00:23:12;;;;;;;13.43;8.20;;;;;;;10.68;100.00;101864.66;2093196;28;20691;-64
2024/03/16 00:24:13;;;;;;;14.50;8.37;;;;;;;10.70;100.00;101869.78;2089904;28;20192;-64
2024/03/16 00:25:17;;;;;;;13.03;8.97;;;;;;;10.73;100.00;101869.78;2089028;28;20635;-64
2024/03/16 00:26:18;;;;;;;12.60;8.40;;;;;;;10.77;100.00;101861.44;2088377;28;20938;-64
2024/03/16 00:27:18;;;;;;;14.90;9.13;;;;;;;10.76;100.00;101870.94;2087861;28;20509;-64
2024/03/16 00:28:19;;;;;;;14.37;8.80;;;;;;;10.79;100.00;101862.63;2088696;28;20259;-64
2024/03/16 00:29:19;;;;;;;14.23;8.93;;;;;;;10.83;100.00;101868.13;2090358;28;20208;-64
2024/03/16 00:30:20;;;;;;;14.93;9.00;;;;;;;10.86;100.00;101862.56;2090076;28;20685;-64
2024/03/16 00:31:20;;;;;;;16.00;9.00;;;;;;;10.75;100.00;101850.75;2092018;28;20196;-65
2024/03/16 00:32:22;;;;;;;14.60;8.97;;;;;;;10.41;100.00;101791.50;2090449;28;20204;-64
2024/03/16 00:33:23;;;;;;;12.17;8.57;;;;;;;10.88;100.00;101867.72;2090903;28;20216;-64
2024/03/16 00:34:23;;;;;;;14.17;8.53;;;;;;;10.93;100.00;101870.06;2092651;28;20655;-64
2024/03/16 00:35:24;;;;;;;12.70;8.47;;;;;;;10.95;100.00;101867.66;2088125;28;20212;-65
2024/03/16 00:36:25;;;;;;;11.83;8.33;;;;;;;10.95;100.00;101873.22;2087928;28;20173;-64
2024/03/16 00:37:25;;;;;;;14.33;8.43;;;;;;;10.91;100.00;101864.16;2089378;28;20212;-64
2024/03/16 00:38:26;;;;;;;12.93;9.10;;;;;;;10.98;100.00;101875.19;2088824;28;20566;-64
2024/03/16 00:39:27;;;;;;;15.97;9.03;;;;;;;10.97;100.00;101871.63;2091410;28;20179;-65
2024/03/16 00:40:27;;;;;;;14.77;8.77;;;;;;;10.97;100.00;101873.63;2095503;28;20541;-64
2024/03/16 00:41:28;;;;;;;12.27;8.10;;;;;;;10.94;100.00;101875.22;2093580;28;20192;-64
2024/03/16 00:42:28;;;;;;;11.93;8.20;;;;;;;10.97;100.00;101873.63;2091109;28;20653;-65
2024/03/16 00:43:29;;;;;;;14.47;8.47;;;;;;;10.98;100.00;101875.19;2093530;28;20649;-64
2024/03/16 00:44:30;;;;;;;13.17;8.20;;;;;;;10.97;100.00;101871.63;2090685;28;20203;-64
2024/03/16 00:45:30;;;;;;;14.20;9.17;;;;;;;11.00;100.00;101875.56;2091498;28;20670;-64
2024/03/16 00:46:31;;;;;;;14.03;8.53;;;;;;;11.03;100.00;101864.47;2094148;28;21053;-64
2024/03/16 00:47:31;;;;;;;13.07;8.63;;;;;;;11.00;100.00;101875.56;2088122;28;20204;-64
2024/03/16 00:48:32;;;;;;;13.00;9.03;;;;;;;11.04;100.00;101876.34;2093620;28;20189;-65
2024/03/16 00:49:32;;;;;;;14.13;9.10;;;;;;;11.02;100.00;101867.66;2092674;28;20215;-64
2024/03/16 00:50:33;;;;;;;14.33;8.97;;;;;;;11.07;100.00;101868.00;2091325;28;20205;-64
2024/03/16 00:51:33;;;;;;;12.80;8.60;;;;;;;10.76;100.00;101823.81;2093098;28;20726;-64
2024/03/16 00:52:34;;;;;;;10.93;7.83;;;;;;;10.99;100.00;101862.88;2087184;28;20806;-64
2024/03/16 00:53:36;;;;;;;14.73;8.37;;;;;;;11.02;100.00;101862.09;2090365;28;20185;-64
2024/03/16 00:54:38;;;;;;;13.83;8.53;;;;;;;11.00;100.00;101861.69;2090908;28;20192;-64
2024/03/16 00:55:38;;;;;;;12.83;7.97;;;;;;;11.00;100.00;101864.47;2091333;28;20454;-64
2024/03/16 00:56:39;;;;;;;14.67;7.90;;;;;;;11.02;100.00;101862.09;2090102;28;20453;-64
2024/03/16 00:57:39;;;;;;;15.07;8.70;;;;;;;11.01;100.00;101855.75;2087565;28;20231;-64
2024/03/16 00:58:40;;;;;;;15.13;8.93;;;;;;;10.97;100.00;101860.50;2091743;28;20188;-64
2024/03/16 00:59:41;;;;;;;17.47;8.80;;;;;;;10.98;100.00;101862.13;2090118;28;20188;-64
2024/03/16 01:00:41;;;;;;;13.50;8.70;;;;;;;11.00;100.00;101858.91;2096030;28;20187;-64
2024/03/16 01:01:42;;;;;;;13.10;8.03;;;;;;;10.98;100.00;101855.78;2092714;28;20209;-64
2024/03/16 01:02:43;;;;;;;11.03;7.77;;;;;;;10.99;100.00;101858.16;2089495;28;20189;-64
2024/03/16 01:03:43;;;;;;;15.33;8.23;;;;;;;11.01;100.00;101852.97;2090820;28;20441;-64
2024/03/16 01:04:44;;;;;;;13.93;8.30;;;;;;;10.98;100.00;101861.31;2091255;28;20631;-64
2024/03/16 01:05:44;;;;;;;13.83;8.37;;;;;;;11.00;100.00;101858.91;2091183;28;20203;-64
2024/03/16 01:06:45;;;;;;;13.83;7.67;;;;;;;10.98;100.00;101862.13;2089628;28;20188;-64
2024/03/16 01:07:45;;;;;;;12.20;8.13;;;;;;;10.92;100.00;101860.94;2087522;28;20194;-64
2024/03/16 01:08:46;;;;;;;12.83;7.83;;;;;;;10.92;100.00;101855.41;2087727;28;20269;-64
2024/03/16 01:09:46;;;;;;;13.17;8.77;;;;;;;10.93;100.00;101859.78;2092262;28;20237;-64
2024/03/16 01:10:54;;;;;;;13.53;8.13;;;;;;;10.91;100.00;101859.38;2092062;28;20187;-64
2024/03/16 01:11:54;;;;;;;12.80;7.63;;;;;;;10.89;100.00;101858.19;2087742;28;20172;-64
2024/03/16 01:12:55;;;;;;;15.10;8.33;;;;;;;10.85;100.00;101862.97;2091852;28;20463;-64
2024/03/16 01:13:55;;;;;;;14.83;8.40;;;;;;;10.85;100.00;101855.44;2092474;28;20649;-64
2024/03/16 01:14:57;;;;;;;12.37;7.90;;;;;;;10.81;100.00;101851.13;2093858;28;20671;-64
2024/03/16 01:15:57;;;;;;;13.60;8.40;;;;;;;10.85;100.00;101863.75;2088395;28;20189;-64
2024/03/16 01:16:58;;;;;;;14.30;8.30;;;;;;;10.84;100.00;101853.06;2090204;28;20438;-65
2024/03/16 01:17:59;;;;;;;14.20;8.37;;;;;;;10.92;100.00;101862.94;2088775;28;20271;-64
2024/03/16 01:18:59;;;;;;;14.80;8.37;;;;;;;10.86;100.00;101857.03;2088177;28;20207;-64
2024/03/16 01:20:00;;;;;;;13.07;8.67;;;;;;;10.88;100.00;101854.66;2087948;28;20219;-64
2024/03/16 01:21:01;;;;;;;12.40;8.37;;;;;;;10.93;100.00;101864.50;2091208;28;20655;-65
2024/03/16 01:22:01;;;;;;;12.60;8.43;;;;;;;10.93;100.00;101861.75;2093925;28;20188;-64
2024/03/16 01:23:04;;;;;;;13.53;8.07;;;;;;;10.97;100.00;101865.28;2087271;28;20454;-65
2024/03/16 01:24:05;;;;;;;12.63;8.00;;;;;;;10.97;100.00;101859.75;2091401;28;20188;-64
2024/03/16 01:25:06;;;;;;;13.27;8.90;;;;;;;9.98;100.00;101718.06;2089110;28;20473;-64
2024/03/16 01:26:07;;;;;;;13.53;8.00;;;;;;;10.95;100.00;101862.91;2087207;28;20184;-64
2024/03/16 01:27:07;;;;;;;12.93;8.37;;;;;;;10.96;100.00;101864.50;2088532;28;20192;-64
2024/03/16 01:28:08;;;;;;;15.83;8.87;;;;;;;10.97;100.00;101859.75;2094869;28;20214;-64
2024/03/16 01:29:13;;;;;;;14.67;8.43;;;;;;;10.95;100.00;101857.38;2091921;28;20681;-64
2024/03/16 01:30:16;;;;;;;11.37;7.40;;;;;;;10.93;100.00;101857.00;2088137;28;20192;-63
2024/03/16 01:31:17;;;;;;;15.23;8.87;;;;;;;10.91;100.00;101853.81;2091104;28;20473;-64
2024/03/16 01:32:18;;;;;;;13.80;8.60;;;;;;;10.92;100.00;101855.41;2089720;28;20483;-64
2024/03/16 01:33:19;;;;;;;11.80;8.27;;;;;;;10.93;100.00;101850.66;2091584;28;20920;-64
2024/03/16 01:34:19;;;;;;;12.93;7.90;;;;;;;10.92;100.00;101854.63;2088687;28;20935;-64
2024/03/16 01:35:20;;;;;;;15.87;8.40;;;;;;;10.91;100.00;101859.38;2086745;28;20187;-64
2024/03/16 01:36:20;;;;;;;14.33;7.73;;;;;;;10.86;100.00;101851.47;2087805;28;20212;-64
2024/03/16 01:37:20;;;;;;;14.37;7.90;;;;;;;10.82;100.00;101853.47;2092673;28;20188;-63
2024/03/16 01:38:21;;;;;;;13.80;8.33;;;;;;;10.84;100.00;101856.66;2091023;28;20259;-64
2024/03/16 01:39:22;;;;;;;13.93;8.33;;;;;;;10.85;100.00;101858.22;2093997;28;20180;-64
2024/03/16 01:40:25;;;;;;;13.33;8.67;;;;;;;10.87;100.00;101852.28;2089330;28;20192;-64
2024/03/16 01:41:26;;;;;;;14.53;8.43;;;;;;;10.80;100.00;101844.78;2090783;28;20329;-64
2024/03/16 01:42:27;;;;;;;10.57;7.53;;;;;;;10.87;100.00;101852.28;2086924;28;20446;-64
2024/03/16 01:43:28;;;;;;;13.40;7.77;;;;;;;10.86;100.00;101854.25;2090110;28;20229;-64
2024/03/16 01:44:30;;;;;;;12.47;8.20;;;;;;;10.83;100.00;101852.31;2090868;28;20437;-64
2024/03/16 01:45:32;;;;;;;15.93;8.30;;;;;;;10.80;100.00;101853.09;2091365;28;20476;-63
2024/03/16 01:46:32;;;;;;;14.43;8.83;;;;;;;10.75;100.00;101847.97;2091690;28;20421;-65
2024/03/16 01:47:33;;;;;;;14.90;8.50;;;;;;;10.75;100.00;101852.72;2086960;28;20815;-64
2024/03/16 01:48:33;;;;;;;13.17;8.20;;;;;;;10.78;100.00;101855.50;2087827;28;20196;-64
2024/03/16 01:49:34;;;;;;;11.50;7.70;;;;;;;10.84;100.00;101858.63;2089438;28;20192;-64
2024/03/16 01:50:34;;;;;;;12.27;7.60;;;;;;;10.83;100.00;101857.03;2093429;28;20542;-64
2024/03/16 01:51:36;;;;;;;13.97;8.07;;;;;;;10.18;100.00;101751.63;2091421;28;20624;-65
2024/03/16 01:52:37;;;;;;;11.77;8.13;;;;;;;10.76;100.00;101846.00;2094251;28;20176;-64
2024/03/16 01:53:38;;;;;;;12.90;7.60;;;;;;;10.11;100.00;101740.59;2093737;28;20433;-64
2024/03/16 01:54:39;;;;;;;13.90;7.97;;;;;;;10.82;100.00;101859.00;2092830;28;20577;-64
2024/03/16 01:55:39;;;;;;;12.33;7.60;;;;;;;10.57;100.00;101818.75;2088308;28;20299;-64
2024/03/16 01:56:40;;;;;;;15.93;8.67;;;;;;;10.82;100.00;101859.00;2089160;28;20184;-64
2024/03/16 01:57:40;;;;;;;13.40;9.17;;;;;;;10.83;100.00;101857.84;2089162;28;20258;-65
2024/03/16 01:58:45;;;;;;;17.03;8.47;;;;;;;10.71;100.00;101835.34;2091120;28;20193;-64
2024/03/16 01:59:45;;;;;;;14.13;8.83;;;;;;;10.78;100.00;101855.50;2088014;28;20854;-64
2024/03/16 02:00:47;;;;;;;14.03;8.00;;;;;;;10.79;100.00;101868.16;2090451;28;20779;-64
2024/03/16 02:01:47;;;;;;;14.27;8.27;;;;;;;10.80;100.00;101855.88;2087053;28;20677;-64
2024/03/16 02:02:48;;;;;;;13.50;7.83;;;;;;;10.84;100.00;101862.19;2087626;28;20787;-64
2024/03/16 02:03:49;;;;;;;12.63;8.53;;;;;;;10.84;100.00;101864.16;2090747;28;20614;-64
2024/03/16 02:04:49;;;;;;;14.07;8.80;;;;;;;10.21;100.00;101759.16;2089258;28;20203;-64
2024/03/16 02:05:50;;;;;;;12.83;8.30;;;;;;;10.86;100.00;101859.03;2091371;28;20627;-64
2024/03/16 02:06:50;;;;;;;11.57;7.73;;;;;;;10.84;100.00;101864.16;2093917;28;20674;-64
2024/03/16 02:07:51;;;;;;;15.30;8.77;;;;;;;10.67;100.00;101846.41;2091116;28;20273;-64
2024/03/16 02:08:52;;;;;;;12.70;8.73;;;;;;;10.87;100.00;101860.59;2086855;28;20788;-64
2024/03/16 02:09:52;;;;;;;14.07;8.23;;;;;;;10.77;100.00;101850.34;2090685;28;20172;-64
2024/03/16 02:10:53;;;;;;;17.77;8.53;;;;;;;10.91;100.00;101864.16;2090658;28;20641;-64
2024/03/16 02:11:53;;;;;;;17.07;10.10;;;;;;;10.89;100.00;101860.97;2087436;28;20184;-64
2024/03/16 02:12:54;;;;;;;14.53;8.40;;;;;;;10.88;100.00;101864.94;2086789;28;20583;-64
2024/03/16 02:13:55;;;;;;;11.93;8.10;;;;;;;10.91;100.00;101864.16;2086590;28;20682;-64
2024/03/16 02:14:56;;;;;;;14.13;9.43;;;;;;;10.33;100.00;101776.13;2090245;28;20190;-64
2024/03/16 02:15:56;;;;;;;14.07;8.57;;;;;;;10.95;100.00;101871.25;2088433;28;20434;-65
2024/03/16 02:16:57;;;;;;;15.83;8.50;;;;;;;10.98;100.00;101866.88;2087520;28;20200;-64
2024/03/16 02:17:58;;;;;;;12.77;8.50;;;;;;;10.94;100.00;101872.44;2092471;28;20228;-64
2024/03/16 02:18:58;;;;;;;14.63;8.70;;;;;;;10.94;100.00;101866.09;2094249;28;20439;-64
2024/03/16 02:19:59;;;;;;;15.80;8.70;;;;;;;10.95;100.00;101870.44;2089269;28;20188;-64
2024/03/16 02:20:59;;;;;;;14.43;9.57;;;;;;;10.97;100.00;101871.63;2093056;28;20226;-65
2024/03/16 02:22:00;;;;;;;12.20;8.00;;;;;;;10.96;100.00;101867.25;2091132;28;20188;-64
2024/03/16 02:23:00;;;;;;;14.27;8.53;;;;;;;10.93;100.00;101870.88;2089514;28;20191;-64
2024/03/16 02:24:01;;;;;;;13.90;9.10;;;;;;;10.95;100.00;101871.25;2089909;28;20210;-64
2024/03/16 02:25:03;;;;;;;13.70;8.67;;;;;;;10.99;100.00;101874.00;2088343;28;20290;-64
2024/03/16 02:26:04;;;;;;;15.40;8.90;;;;;;;10.97;100.00;101876.38;2093738;28;20245;-64
2024/03/16 02:27:06;;;;;;;14.83;9.33;;;;;;;10.95;100.00;101874.00;2089266;28;20422;-64
2024/03/16 02:28:08;;;;;;;16.43;8.90;;;;;;;10.60;100.00;101821.50;2086624;28;20915;-65
2024/03/16 02:29:08;;;;;;;13.70;9.33;;;;;;;10.94;100.00;101883.53;2088202;28;20450;-64
2024/03/16 02:30:10;;;;;;;16.57;10.10;;;;;;;10.58;100.00;101817.56;2087657;28;20442;-64
2024/03/16 02:31:10;;;;;;;15.53;9.17;;;;;;;10.90;100.00;101881.97;2091316;28;20191;-64
2024/03/16 02:32:11;;;;;;;15.47;9.30;;;;;;;10.87;100.00;101880.78;2086820;28;21026;-64
2024/03/16 02:33:11;;;;;;;13.60;8.97;;;;;;;10.85;100.00;101883.19;2089306;28;20260;-64
2024/03/16 02:34:12;;;;;;;16.40;9.53;;;;;;;10.84;100.00;101875.25;2086774;28;20282;-65
2024/03/16 02:35:13;;;;;;;14.43;9.37;;;;;;;10.81;100.00;101885.16;2090009;28;20180;-64
2024/03/16 02:36:14;;;;;;;13.50;8.97;;;;;;;10.77;100.00;101883.63;2087256;28;20457;-64
2024/03/16 02:37:14;;;;;;;16.37;8.87;;;;;;;10.70;100.00;101878.88;2089364;28;20188;-64
2024/03/16 02:38:15;;;;;;;16.33;9.43;;;;;;;10.62;100.00;101877.34;2087569;28;20184;-64
2024/03/16 02:39:16;;;;;;;16.23;8.73;;;;;;;9.88;100.00;101757.66;2087135;28;20694;-64
2024/03/16 02:40:17;;;;;;;14.83;9.63;;;;;;;10.66;100.00;101885.66;2086074;28;20254;-64
2024/03/16 02:41:18;;;;;;;17.53;9.20;;;;;;;10.67;100.00;101885.22;2087456;28;20454;-64
2024/03/16 02:42:18;;;;;;;15.93;9.93;;;;;;;10.64;100.00;101886.06;2086081;28;20254;-64
2024/03/16 02:43:19;;;;;;;15.63;9.43;;;;;;;10.63;100.00;101880.91;2087193;28;20283;-64
2024/03/16 02:44:19;;;;;;;13.97;9.33;;;;;;;10.58;100.00;101875.78;2086656;28;20260;-64
2024/03/16 02:45:20;;;;;;;14.77;8.97;;;;;;;10.58;100.00;101887.66;2090959;28;20198;-64
2024/03/16 02:46:20;;;;;;;14.57;8.93;;;;;;;10.58;100.00;101876.56;2087915;28;20267;-65
2024/03/16 02:47:21;;;;;;;14.77;8.60;;;;;;;10.56;100.00;101883.72;2086365;28;20203;-64
2024/03/16 02:48:22;;;;;;;15.57;9.37;;;;;;;9.76;100.00;101755.34;2088255;28;20188;-64
2024/03/16 02:49:23;;;;;;;15.43;9.83;;;;;;;10.59;100.00;101886.47;2089134;28;20190;-64
2024/03/16 02:50:24;;;;;;;15.93;9.87;;;;;;;10.58;100.00;101884.09;2087980;28;20283;-64
2024/03/16 02:51:24;;;;;;;14.50;8.70;;;;;;;10.54;100.00;101872.22;2092492;28;20952;-64
2024/03/16 02:52:25;;;;;;;13.27;9.10;;;;;;;10.64;100.00;101879.69;2093400;28;20676;-64
2024/03/16 02:53:25;;;;;;;15.90;8.97;;;;;;;10.62;100.00;101887.66;2092063;28;20663;-64
2024/03/16 02:54:26;;;;;;;16.10;9.60;;;;;;;10.63;100.00;101886.44;2087317;28;20191;-64
2024/03/16 02:55:26;;;;;;;14.73;9.13;;;;;;;10.63;100.00;101881.72;2092814;28;20642;-64
2024/03/16 02:56:27;;;;;;;12.60;8.33;;;;;;;10.63;100.00;101881.72;2088571;28;20685;-64
2024/03/16 02:57:27;;;;;;;12.93;8.33;;;;;;;10.65;100.00;101886.84;2089523;28;20207;-63
2024/03/16 02:58:28;;;;;;;17.63;9.70;;;;;;;10.62;100.00;101891.22;2090590;28;20649;-64
2024/03/16 02:59:29;;;;;;;14.27;9.07;;;;;;;10.61;100.00;101886.06;2088928;28;20191;-63
2024/03/16 03:00:30;;;;;;;13.67;9.23;;;;;;;10.58;100.00;101901.53;2091375;28;20482;-64
2024/03/16 03:01:30;;;;;;;16.40;9.73;;;;;;;10.53;100.00;101885.31;2091090;28;20615;-64
2024/03/16 03:02:31;;;;;;;16.13;9.53;;;;;;;10.51;100.00;101889.66;2089917;28;20183;-64
2024/03/16 03:03:32;;;;;;;17.23;9.17;;;;;;;10.52;100.00;101889.28;2089109;28;20187;-64
2024/03/16 03:04:34;;;;;;;15.43;9.70;;;;;;;10.56;100.00;101889.25;2089635;28;20582;-64
2024/03/16 03:05:34;;;;;;;15.83;9.60;;;;;;;9.70;100.00;101756.13;2088691;28;20196;-64
2024/03/16 03:06:35;;;;;;;14.57;8.97;;;;;;;10.54;100.00;101888.84;2086765;28;20427;-65
2024/03/16 03:07:35;;;;;;;14.23;8.90;;;;;;;10.55;100.00;101894.00;2089351;28;20279;-64
2024/03/16 03:08:36;;;;;;;14.10;9.00;;;;;;;10.54;100.00;101888.84;2087287;28;20205;-64
2024/03/16 03:09:37;;;;;;;15.07;9.47;;;;;;;10.40;100.00;101855.66;2080043;28;20640;-64
2024/03/16 03:10:41;;;;;;;14.63;9.10;;;;;;;10.45;100.00;101866.34;2085828;28;20180;-64
2024/03/16 03:11:41;;;;;;;15.10;8.87;;;;;;;10.47;100.00;101870.28;2094919;28;21024;-63
2024/03/16 03:12:42;;;;;;;15.03;8.67;;;;;;;10.65;100.00;101890.41;2095324;28;21197;-64
2024/03/16 03:13:44;;;;;;;15.43;9.10;;;;;;;10.62;100.00;101882.91;2088437;28;20269;-64
2024/03/16 03:14:45;;;;;;;15.83;8.60;;;;;;;10.66;100.00;101891.19;2088174;28;20279;-64
2024/03/16 03:15:48;;;;;;;15.73;9.03;;;;;;;10.69;100.00;101888.41;2089525;28;20450;-64
2024/03/16 03:16:49;;;;;;;13.70;9.97;;;;;;;10.69;100.00;101890.38;2088890;28;20681;-64
2024/03/16 03:17:49;;;;;;;15.60;8.57;;;;;;;10.53;100.00;101863.13;2089048;28;20822;-64
2024/03/16 03:18:55;;;;;;;14.57;9.60;;;;;;;10.69;100.00;101891.19;2094857;28;20560;-63
2024/03/16 03:19:55;;;;;;;15.10;9.53;;;;;;;10.69;100.00;101893.16;2092117;28;20184;-64
2024/03/16 03:20:56;;;;;;;14.10;9.20;;;;;;;10.70;100.00;101889.19;2088575;28;21003;-64
2024/03/16 03:21:56;;;;;;;14.63;8.93;;;;;;;10.70;100.00;101889.19;2094350;28;20194;-64
2024/03/16 03:22:57;;;;;;;15.47;8.97;;;;;;;10.60;100.00;101876.19;2091544;28;20188;-64
2024/03/16 03:23:59;;;;;;;14.33;9.73;;;;;;;10.74;100.00;101888.00;2088837;28;20200;-64
2024/03/16 03:24:59;;;;;;;19.07;9.87;;;;;;;10.83;100.00;101893.91;2087238;28;20247;-64
2024/03/16 03:26:00;;;;;;;15.33;9.20;;;;;;;10.81;100.00;101899.03;2088804;28;20454;-64
2024/03/16 03:27:00;;;;;;;13.53;8.57;;;;;;;10.83;100.00;101893.91;2088776;28;20279;-63
2024/03/16 03:28:01;;;;;;;13.97;8.87;;;;;;;10.83;100.00;101893.91;2091495;28;20777;-64
2024/03/16 03:29:02;;;;;;;14.37;9.37;;;;;;;10.82;100.00;101892.28;2092809;28;21929;-63
2024/03/16 03:30:02;;;;;;;13.67;8.23;;;;;;;10.79;100.00;101893.13;2094692;28;21124;-64
2024/03/16 03:31:06;;;;;;;15.77;8.87;;;;;;;10.82;100.00;101897.84;2094336;28;21139;-64
2024/03/16 03:32:06;;;;;;;14.80;8.50;;;;;;;10.87;100.00;101899.41;2088633;28;20249;-64
2024/03/16 03:33:08;;;;;;;12.60;8.33;;;;;;;10.77;100.00;101878.06;2087957;28;20486;-64
2024/03/16 03:34:09;;;;;;;15.00;8.37;;;;;;;10.86;100.00;101897.84;2092790;28;20238;-63
2024/03/16 03:35:09;;;;;;;13.37;8.17;;;;;;;10.83;100.00;101895.88;2091978;28;20453;-64
2024/03/16 03:36:10;;;;;;;16.47;8.70;;;;;;;10.83;100.00;101887.53;2087902;28;20652;-64
2024/03/16 03:37:12;;;;;;;17.33;8.77;;;;;;;10.83;100.00;101898.63;2090124;28;20196;-64
2024/03/16 03:38:12;;;;;;;13.53;8.60;;;;;;;10.23;100.00;101806.63;2088641;28;20195;-64
2024/03/16 03:39:14;;;;;;;15.00;8.57;;;;;;;10.62;100.00;101882.09;2090096;28;20943;-64
2024/03/16 03:40:14;;;;;;;15.87;8.80;;;;;;;10.74;100.00;101901.84;2095201;28;20179;-64
2024/03/16 03:41:15;;;;;;;15.57;9.57;;;;;;;10.70;100.00;101901.06;2091812;28;20433;-65
2024/03/16 03:42:15;;;;;;;13.40;8.40;;;;;;;10.68;100.00;101897.13;2092901;28;20278;-64
2024/03/16 03:43:22;;;;;;;14.50;9.20;;;;;;;10.65;100.00;101895.94;2091507;28;20188;-64
2024/03/16 03:44:35;;;;;;;14.13;9.10;;;;;;;10.65;100.00;101895.94;2087189;28;20219;-65
2024/03/16 03:45:50;;;;;;;15.90;9.17;;;;;;;10.58;100.00;101884.88;2089945;28;20444;-65
2024/03/16 03:46:50;;;;;;;14.43;8.67;;;;;;;10.70;100.00;101906.63;2090714;28;20794;-63
2024/03/16 03:48:00;;;;;;;15.73;8.40;;;;;;;10.70;100.00;101908.59;2091729;28;20723;-64
2024/03/16 03:49:10;;;;;;;13.33;8.80;;;;;;;10.72;100.00;101909.75;2096130;28;20184;-64
2024/03/16 03:50:11;;;;;;;13.00;8.90;;;;;;;10.72;100.00;101897.91;2093417;28;20504;-63
2024/03/16 03:51:12;;;;;;;14.47;8.63;;;;;;;10.33;100.00;101839.84;2095494;28;20483;-63
2024/03/16 03:52:12;;;;;;;14.80;7.83;;;;;;;10.64;100.00;101896.34;2089661;28;20184;-64
2024/03/16 03:53:13;;;;;;;14.17;9.00;;;;;;;10.78;100.00;101912.94;2088758;28;20188;-63
2024/03/16 03:54:13;;;;;;;17.67;10.53;;;;;;;10.80;100.00;101908.56;2090306;28;20215;-64
2024/03/16 03:55:14;;;;;;;14.37;9.10;;;;;;;10.78;100.00;101908.19;2088485;28;20253;-64
2024/03/16 03:56:14;;;;;;;14.03;8.70;;;;;;;10.83;100.00;101913.31;2088447;28;20680;-64
2024/03/16 03:57:15;;;;;;;13.37;8.63;;;;;;;10.85;100.00;101910.09;2093521;28;20202;-64
2024/03/16 03:58:15;;;;;;;15.80;9.63;;;;;;;10.87;100.00;101910.50;2091565;28;20313;-64
2024/03/16 03:59:16;;;;;;;13.20;8.70;;;;;;;10.80;100.00;101896.66;2091611;28;20194;-64
2024/03/16 04:00:16;;;;;;;14.57;9.30;;;;;;;10.83;100.00;101913.31;2090950;28;20184;-64
2024/03/16 04:01:17;;;;;;;15.53;9.37;;;;;;;10.24;100.00;101820.09;2095784;28;20271;-64
2024/03/16 04:02:17;;;;;;;15.80;9.20;;;;;;;10.23;100.00;101823.25;2094374;28;20654;-64
2024/03/16 04:03:18;;;;;;;14.70;9.10;;;;;;;10.82;100.00;101899.84;2088541;28;20184;-64
2024/03/16 04:04:18;;;;;;;15.27;9.37;;;;;;;10.78;100.00;101904.59;2091056;28;20199;-63
2024/03/16 04:05:19;;;;;;;16.43;9.13;;;;;;;10.76;100.00;101912.53;2090962;28;20192;-64
2024/03/16 04:06:20;;;;;;;15.03;9.13;;;;;;;10.68;100.00;101910.97;2088210;28;20259;-64
2024/03/16 04:07:20;;;;;;;15.80;9.30;;;;;;;10.50;100.00;101896.41;2091972;28;20220;-65
2024/03/16 04:08:21;;;;;;;18.20;10.07;;;;;;;10.59;100.00;101918.94;2090589;28;20588;-64
2024/03/16 04:09:21;;;;;;;15.53;9.77;;;;;;;10.64;100.00;101910.19;2093630;28;20238;-63
2024/03/16 04:10:22;;;;;;;17.57;10.77;;;;;;;10.57;100.00;101901.91;2096091;28;20175;-63
2024/03/16 04:11:23;;;;;;;13.97;9.10;;;;;;;10.63;100.00;101917.75;2092562;28;20582;-64
2024/03/16 04:12:23;;;;;;;18.27;9.50;;;;;;;10.60;100.00;101906.66;2089733;28;20677;-63
2024/03/16 04:13:24;;;;;;;13.37;8.57;;;;;;;10.63;100.00;101911.41;2089861;28;20258;-64
2024/03/16 04:14:24;;;;;;;16.60;9.23;;;;;;;10.65;100.00;101914.56;2091487;28;20192;-64
2024/03/16 04:15:25;;;;;;;17.20;10.13;;;;;;;10.67;100.00;101910.19;2088267;28;20215;-63
2024/03/16 04:16:26;;;;;;;13.80;9.57;;;;;;;10.66;100.00;101922.47;2092960;28;20422;-64
2024/03/16 04:17:26;;;;;;;16.30;9.53;;;;;;;10.68;100.00;101911.78;2087902;28;20446;-64
2024/03/16 04:18:27;;;;;;;13.53;9.37;;;;;;;10.63;100.00;101900.31;2089802;28;20180;-65
2024/03/16 04:19:27;;;;;;;18.70;9.23;;;;;;;10.68;100.00;101913.75;2092777;28;20630;-64
2024/03/16 04:20:28;;;;;;;16.50;9.33;;;;;;;10.70;100.00;101914.13;2091625;28;20691;-64
2024/03/16 04:21:28;;;;;;;18.30;9.70;;;;;;;10.69;100.00;101907.81;2092749;28;20210;-63
2024/03/16 04:22:29;;;;;;;14.50;9.30;;;;;;;10.74;100.00;101912.16;2087490;28;20275;-64
2024/03/16 04:23:29;;;;;;;16.23;9.23;;;;;;;10.77;100.00;101911.34;2088259;28;20218;-64
2024/03/16 04:24:30;;;;;;;17.23;10.70;;;;;;;10.78;100.00;101910.94;2086746;28;20246;-64
2024/03/16 04:25:30;;;;;;;16.73;10.57;;;;;;;10.78;100.00;101912.94;2089578;28;20191;-64
2024/03/16 04:26:31;;;;;;;16.57;9.97;;;;;;;10.83;100.00;101913.31;2093548;28;20184;-63
2024/03/16 04:27:31;;;;;;;14.53;9.93;;;;;;;10.86;100.00;101915.25;2093119;28;20274;-64
2024/03/16 04:28:32;;;;;;;17.17;9.93;;;;;;;10.83;100.00;101915.28;2088664;28;20265;-64
2024/03/16 04:29:32;;;;;;;15.33;9.53;;;;;;;10.83;100.00;101923.59;2090725;28;20204;-64
2024/03/16 04:30:33;;;;;;;17.73;10.37;;;;;;;10.84;100.00;101923.19;2091641;28;20192;-64
2024/03/16 04:31:33;;;;;;;17.63;10.30;;;;;;;10.76;100.00;101921.63;2087484;28;20192;-64
2024/03/16 04:32:35;;;;;;;17.53;10.90;;;;;;;10.76;100.00;101915.31;2086203;28;20187;-64
2024/03/16 04:33:35;;;;;;;15.30;9.47;;;;;;;10.72;100.00;101923.63;2091918;28;20643;-64
2024/03/16 04:34:36;;;;;;;14.27;9.20;;;;;;;10.62;100.00;101905.09;2094065;28;20891;-64
2024/03/16 04:35:36;;;;;;;18.33;9.27;;;;;;;10.67;100.00;101926.81;2094540;28;20581;-64
2024/03/16 04:36:37;;;;;;;13.50;9.40;;;;;;;10.67;100.00;101926.81;2090345;28;20640;-64
2024/03/16 04:37:38;;;;;;;15.47;10.03;;;;;;;10.66;100.00;101921.69;2093774;28;20201;-64